createdAt,value
2022-08-23T00:00:05.598Z,21.41
2022-08-23T00:01:04.382Z,21.43
2022-08-23T00:02:03.389Z,21.43
2022-08-23T00:03:03.450Z,21.44
2022-08-23T00:04:03.342Z,21.40
2022-08-23T00:05:08.167Z,21.38
2022-08-23T00:06:04.313Z,21.38
2022-08-23T00:07:03.305Z,21.38
2022-08-23T00:08:03.314Z,21.41
2022-08-23T00:09:03.271Z,21.40
2022-08-23T00:10:03.267Z,21.38
2022-08-23T00:11:03.251Z,21.38
2022-08-23T00:12:03.244Z,21.35
2022-08-23T00:13:03.243Z,21.30
2022-08-23T00:14:03.214Z,21.28
2022-08-23T00:15:03.203Z,21.23
2022-08-23T00:16:03.183Z,21.22
2022-08-23T00:17:03.187Z,21.20
2022-08-23T00:18:03.172Z,21.17
2022-08-23T00:19:03.566Z,21.14
2022-08-23T00:20:03.149Z,21.14
2022-08-23T00:21:03.131Z,21.11
2022-08-23T00:22:03.137Z,21.07
2022-08-23T00:23:03.104Z,21.03
2022-08-23T00:24:03.087Z,21.01
2022-08-23T00:25:03.068Z,21.03
2022-08-23T00:26:03.066Z,21.03
2022-08-23T00:27:03.045Z,21.01
2022-08-23T00:28:03.057Z,21.00
2022-08-23T00:29:03.016Z,21.00
2022-08-23T00:30:03.013Z,21.00
2022-08-23T00:31:02.998Z,20.98
2022-08-23T00:32:02.997Z,20.98
2022-08-23T00:33:02.970Z,21.00
2022-08-23T00:34:02.963Z,21.03
2022-08-23T00:35:02.939Z,21.05
2022-08-23T00:36:02.934Z,21.08
2022-08-23T00:37:02.928Z,21.11
2022-08-23T00:38:31.627Z,21.10
2022-08-23T00:39:03.889Z,21.10
2022-08-23T00:40:03.027Z,21.11
2022-08-23T00:41:02.857Z,21.13
2022-08-23T00:42:02.874Z,21.13
2022-08-23T00:43:02.830Z,21.15
2022-08-23T00:44:02.816Z,21.17
2022-08-23T00:45:02.799Z,21.15
2022-08-23T00:46:02.802Z,21.14
2022-08-23T00:47:02.790Z,21.04
2022-08-23T00:48:02.769Z,21.00
2022-08-23T00:49:02.749Z,20.98
2022-08-23T00:50:02.800Z,20.98
2022-08-23T00:51:02.720Z,20.95
2022-08-23T00:52:02.749Z,20.92
2022-08-23T00:53:02.700Z,20.88
2022-08-23T00:54:02.699Z,20.83
2022-08-23T00:55:02.681Z,20.83
2022-08-23T00:56:02.684Z,20.80
2022-08-23T00:57:02.640Z,20.74
2022-08-23T00:58:02.659Z,20.70
2022-08-23T00:59:02.614Z,20.66
2022-08-23T01:00:02.652Z,20.64
2022-08-23T01:01:02.600Z,20.63
2022-08-23T01:02:02.632Z,20.63
2022-08-23T01:03:02.683Z,20.59
2022-08-23T01:04:04.875Z,20.59
2022-08-23T01:05:02.542Z,20.53
2022-08-23T01:06:02.522Z,20.53
2022-08-23T01:07:02.519Z,20.52
2022-08-23T01:08:02.632Z,20.52
2022-08-23T01:09:02.513Z,20.52
2022-08-23T01:10:03.480Z,20.50
2022-08-23T01:11:02.482Z,20.49
2022-08-23T01:12:03.453Z,20.50
2022-08-23T01:13:02.461Z,20.50
2022-08-23T01:14:02.423Z,20.49
2022-08-23T01:15:02.425Z,20.49
2022-08-23T01:16:02.402Z,20.44
2022-08-23T01:17:02.394Z,20.42
2022-08-23T01:18:02.392Z,20.42
2022-08-23T01:19:02.366Z,20.37
2022-08-23T01:20:02.354Z,20.36
2022-08-23T01:21:02.345Z,20.32
2022-08-23T01:22:02.324Z,20.30
2022-08-23T01:23:02.324Z,20.27
2022-08-23T01:24:02.294Z,20.27
2022-08-23T01:25:07.785Z,20.24
2022-08-23T01:26:03.273Z,20.24
2022-08-23T01:27:02.263Z,20.22
2022-08-23T01:28:02.415Z,20.21
2022-08-23T01:29:02.228Z,20.18
2022-08-23T01:30:02.222Z,20.17
2022-08-23T01:31:02.214Z,20.15
2022-08-23T01:32:02.185Z,20.12
2022-08-23T01:33:02.226Z,20.11
2022-08-23T01:34:02.166Z,20.12
2022-08-23T01:35:02.155Z,20.10
2022-08-23T01:36:02.156Z,20.03
2022-08-23T01:37:02.135Z,20.02
2022-08-23T01:38:02.310Z,20.02
2022-08-23T01:39:02.106Z,20.02
2022-08-23T01:40:02.128Z,20.00
2022-08-23T01:41:02.073Z,19.99
2022-08-23T01:42:02.064Z,19.97
2022-08-23T01:43:03.056Z,19.93
2022-08-23T01:44:02.027Z,19.90
2022-08-23T01:45:02.024Z,19.89
2022-08-23T01:46:02.007Z,19.85
2022-08-23T01:47:01.993Z,19.82
2022-08-23T01:48:02.363Z,19.81
2022-08-23T01:49:04.527Z,19.79
2022-08-23T01:50:02.951Z,19.79
2022-08-23T01:51:01.939Z,19.78
2022-08-23T01:52:01.939Z,19.77
2022-08-23T01:53:02.192Z,19.74
2022-08-23T01:54:01.898Z,19.74
2022-08-23T01:55:01.899Z,19.71
2022-08-23T01:56:01.870Z,19.70
2022-08-23T01:57:01.848Z,19.66
2022-08-23T01:58:01.858Z,19.62
2022-08-23T01:59:01.829Z,19.60
2022-08-23T02:00:01.818Z,19.60
2022-08-23T02:01:01.789Z,19.62
2022-08-23T02:02:01.850Z,19.62
2022-08-23T02:03:02.070Z,19.63
2022-08-23T02:04:05.387Z,19.66
2022-08-23T02:05:01.751Z,19.67
2022-08-23T02:06:01.740Z,19.67
2022-08-23T02:07:01.725Z,19.64
2022-08-23T02:08:01.883Z,19.63
2022-08-23T02:09:03.520Z,19.59
2022-08-23T02:10:01.684Z,19.56
2022-08-23T02:11:01.669Z,19.52
2022-08-23T02:12:01.664Z,19.48
2022-08-23T02:13:01.653Z,19.44
2022-08-23T02:14:01.649Z,19.41
2022-08-23T02:15:01.619Z,19.42
2022-08-23T02:16:01.599Z,19.41
2022-08-23T02:17:04.189Z,19.39
2022-08-23T02:18:01.759Z,19.39
2022-08-23T02:19:01.581Z,19.41
2022-08-23T02:20:01.552Z,19.39
2022-08-23T02:21:01.601Z,19.39
2022-08-23T02:22:01.522Z,19.37
2022-08-23T02:23:01.773Z,19.35
2022-08-23T02:24:01.526Z,19.34
2022-08-23T02:25:01.479Z,19.32
2022-08-23T02:26:01.475Z,19.27
2022-08-23T02:27:01.858Z,19.24
2022-08-23T02:28:01.456Z,19.24
2022-08-23T02:29:01.454Z,19.23
2022-08-23T02:30:02.117Z,19.20
2022-08-23T02:31:01.403Z,19.19
2022-08-23T02:32:01.392Z,19.17
2022-08-23T02:33:01.541Z,19.19
2022-08-23T02:36:22.725Z,19.19
2022-08-23T02:37:22.671Z,19.16
2022-08-23T02:38:22.667Z,19.15
2022-08-23T02:39:22.678Z,19.16
2022-08-23T02:40:22.700Z,19.09
2022-08-23T02:41:22.627Z,19.08
2022-08-23T02:42:22.619Z,19.05
2022-08-23T02:43:22.600Z,19.01
2022-08-23T02:44:22.610Z,19.01
2022-08-23T02:45:22.587Z,18.98
2022-08-23T02:46:22.551Z,18.97
2022-08-23T02:47:22.540Z,18.97
2022-08-23T02:48:22.567Z,18.97
2022-08-23T02:49:22.531Z,18.96
2022-08-23T02:50:22.511Z,18.96
2022-08-23T02:51:22.480Z,18.94
2022-08-23T02:52:22.480Z,18.89
2022-08-23T02:53:22.481Z,18.86
2022-08-23T02:54:22.471Z,18.85
2022-08-23T02:55:22.442Z,18.85
2022-08-23T02:56:22.422Z,18.86
2022-08-23T02:57:22.408Z,18.86
2022-08-23T02:58:22.401Z,18.88
2022-08-23T02:59:22.409Z,18.89
2022-08-23T03:00:22.374Z,18.91
2022-08-23T03:01:22.352Z,18.92
2022-08-23T03:02:22.405Z,18.92
2022-08-23T03:03:22.477Z,18.91
2022-08-23T03:04:22.343Z,18.91
2022-08-23T03:05:22.305Z,18.89
2022-08-23T03:06:24.535Z,18.91
2022-08-23T03:07:22.263Z,18.94
2022-08-23T03:08:22.263Z,18.94
2022-08-23T03:09:22.254Z,18.92
2022-08-23T03:10:22.223Z,18.91
2022-08-23T03:11:22.215Z,18.88
2022-08-23T03:12:22.209Z,18.85
2022-08-23T03:13:22.242Z,18.82
2022-08-23T03:14:22.196Z,18.79
2022-08-23T03:15:22.154Z,18.78
2022-08-23T03:16:22.154Z,18.78
2022-08-23T03:17:22.125Z,18.73
2022-08-23T03:18:22.135Z,18.71
2022-08-23T03:19:22.125Z,18.71
2022-08-23T03:20:22.111Z,18.70
2022-08-23T03:21:22.074Z,18.68
2022-08-23T03:22:22.077Z,18.68
2022-08-23T03:23:22.050Z,18.70
2022-08-23T03:24:22.065Z,18.71
2022-08-23T03:25:22.028Z,18.71
2022-08-23T03:26:22.017Z,18.71
2022-08-23T03:27:21.993Z,18.71
2022-08-23T03:28:21.987Z,18.74
2022-08-23T03:29:21.984Z,18.70
2022-08-23T03:30:21.950Z,18.73
2022-08-23T03:31:21.909Z,18.73
2022-08-23T03:32:21.874Z,18.70
2022-08-23T03:33:21.868Z,18.67
2022-08-23T03:34:21.882Z,18.66
2022-08-23T03:35:21.842Z,18.64
2022-08-23T03:36:27.911Z,18.58
2022-08-23T03:37:22.811Z,18.57
2022-08-23T03:38:21.801Z,18.53
2022-08-23T03:39:21.813Z,18.51
2022-08-23T03:40:21.812Z,18.48
2022-08-23T03:41:21.791Z,18.48
2022-08-23T03:42:21.758Z,18.46
2022-08-23T03:43:22.729Z,18.48
2022-08-23T03:44:21.740Z,18.49
2022-08-23T03:45:21.712Z,18.52
2022-08-23T03:46:21.692Z,18.49
2022-08-23T03:47:21.691Z,18.48
2022-08-23T03:48:21.662Z,18.45
2022-08-23T03:49:21.666Z,18.45
2022-08-23T03:50:21.632Z,18.43
2022-08-23T03:51:21.623Z,18.42
2022-08-23T03:52:21.618Z,18.41
2022-08-23T03:53:21.602Z,18.41
2022-08-23T03:54:22.175Z,18.39
2022-08-23T03:55:21.573Z,18.37
2022-08-23T03:56:21.553Z,18.36
2022-08-23T03:57:21.543Z,18.34
2022-08-23T03:58:21.570Z,18.33
2022-08-23T03:59:21.529Z,18.30
2022-08-23T04:00:21.504Z,18.28
2022-08-23T04:01:25.221Z,18.26
2022-08-23T04:02:22.474Z,18.24
2022-08-23T04:03:21.467Z,18.19
2022-08-23T04:04:21.464Z,18.13
2022-08-23T04:05:21.434Z,18.08
2022-08-23T04:06:21.412Z,18.06
2022-08-23T04:07:21.445Z,18.08
2022-08-23T04:08:33.183Z,18.02
2022-08-23T04:09:22.395Z,18.00
2022-08-23T04:10:21.373Z,18.00
2022-08-23T04:11:21.384Z,18.00
2022-08-23T04:12:21.335Z,17.98
2022-08-23T04:13:21.331Z,17.97
2022-08-23T04:14:21.341Z,17.91
2022-08-23T04:15:21.295Z,17.88
2022-08-23T04:16:21.287Z,17.90
2022-08-23T04:17:21.276Z,17.87
2022-08-23T04:18:21.256Z,17.86
2022-08-23T04:19:21.258Z,17.86
2022-08-23T04:20:21.216Z,17.86
2022-08-23T04:21:21.216Z,17.82
2022-08-23T04:22:21.205Z,17.79
2022-08-23T04:23:21.260Z,17.79
2022-08-23T04:24:21.206Z,17.79
2022-08-23T04:25:34.928Z,17.79
2022-08-23T04:26:22.144Z,17.80
2022-08-23T04:27:21.134Z,17.80
2022-08-23T04:28:21.116Z,17.80
2022-08-23T04:29:24.836Z,17.80
2022-08-23T04:30:22.098Z,17.80
2022-08-23T04:31:22.357Z,17.82
2022-08-23T04:32:28.167Z,17.80
2022-08-23T04:33:22.058Z,17.80
2022-08-23T04:34:21.060Z,17.79
2022-08-23T04:35:22.018Z,17.76
2022-08-23T04:36:21.025Z,17.78
2022-08-23T04:37:21.006Z,17.73
2022-08-23T04:38:25.206Z,17.71
2022-08-23T04:39:20.982Z,17.68
2022-08-23T04:40:21.001Z,17.66
2022-08-23T04:41:20.949Z,17.60
2022-08-23T04:42:21.734Z,17.57
2022-08-23T04:43:20.930Z,17.57
2022-08-23T04:44:20.879Z,17.54
2022-08-23T04:45:20.915Z,17.53
2022-08-23T04:46:20.883Z,17.53
2022-08-23T04:47:20.859Z,17.52
2022-08-23T04:48:20.858Z,17.49
2022-08-23T04:49:20.839Z,17.47
2022-08-23T04:50:20.876Z,17.50
2022-08-23T04:51:20.811Z,17.49
2022-08-23T04:52:20.811Z,17.50
2022-08-23T04:53:20.787Z,17.52
2022-08-23T04:54:22.582Z,17.52
2022-08-23T04:55:20.777Z,17.54
2022-08-23T04:56:20.741Z,17.54
2022-08-23T04:57:20.740Z,17.56
2022-08-23T04:58:20.710Z,17.57
2022-08-23T04:59:20.701Z,17.60
2022-08-23T05:00:20.741Z,17.60
2022-08-23T05:01:20.767Z,17.63
2022-08-23T05:02:20.652Z,17.65
2022-08-23T05:03:21.040Z,17.65
2022-08-23T05:04:20.635Z,17.65
2022-08-23T05:05:20.639Z,17.66
2022-08-23T05:06:20.613Z,17.60
2022-08-23T05:07:20.618Z,17.59
2022-08-23T05:08:21.580Z,17.57
2022-08-23T05:09:20.948Z,17.59
2022-08-23T05:10:20.570Z,17.59
2022-08-23T05:11:20.586Z,17.59
2022-08-23T05:12:20.529Z,17.60
2022-08-23T05:13:20.573Z,17.60
2022-08-23T05:14:20.839Z,17.65
2022-08-23T05:15:20.511Z,17.66
2022-08-23T05:16:20.476Z,17.69
2022-08-23T05:17:20.462Z,17.71
2022-08-23T05:18:20.443Z,17.72
2022-08-23T05:19:20.432Z,17.75
2022-08-23T05:20:20.433Z,17.76
2022-08-23T05:21:20.432Z,17.73
2022-08-23T05:22:20.421Z,17.72
2022-08-23T05:23:20.382Z,17.71
2022-08-23T05:24:21.343Z,17.71
2022-08-23T05:25:20.375Z,17.71
2022-08-23T05:26:20.342Z,17.72
2022-08-23T05:27:20.327Z,17.72
2022-08-23T05:28:20.305Z,17.72
2022-08-23T05:29:20.303Z,17.75
2022-08-23T05:30:20.313Z,17.75
2022-08-23T05:31:20.265Z,17.75
2022-08-23T05:32:20.244Z,17.75
2022-08-23T05:33:20.255Z,17.75
2022-08-23T05:34:22.658Z,17.78
2022-08-23T05:35:20.243Z,17.79
2022-08-23T05:36:20.204Z,17.78
2022-08-23T05:37:20.194Z,17.78
2022-08-23T05:38:20.866Z,17.80
2022-08-23T05:39:24.168Z,17.82
2022-08-23T05:40:21.240Z,17.82
2022-08-23T05:41:20.960Z,17.84
2022-08-23T05:42:20.125Z,17.82
2022-08-23T05:43:20.123Z,17.86
2022-08-23T05:44:20.095Z,17.88
2022-08-23T05:45:21.731Z,17.91
2022-08-23T05:46:20.136Z,17.93
2022-08-23T05:47:24.884Z,17.95
2022-08-23T05:48:21.055Z,17.98
2022-08-23T05:49:21.205Z,18.03
2022-08-23T05:50:20.016Z,18.05
2022-08-23T05:51:20.032Z,18.08
2022-08-23T05:52:19.990Z,18.09
2022-08-23T05:53:19.978Z,18.11
2022-08-23T05:54:19.986Z,18.13
2022-08-23T05:55:19.955Z,18.16
2022-08-23T05:56:20.956Z,18.18
2022-08-23T05:57:19.927Z,18.23
2022-08-23T05:58:19.906Z,18.23
2022-08-23T05:59:19.907Z,18.26
2022-08-23T06:00:19.886Z,18.28
2022-08-23T06:01:19.949Z,18.30
2022-08-23T06:02:19.857Z,18.33
2022-08-23T06:03:19.855Z,18.33
2022-08-23T06:04:19.826Z,18.33
2022-08-23T06:05:19.818Z,18.34
2022-08-23T06:06:19.815Z,18.34
2022-08-23T06:07:19.791Z,18.36
2022-08-23T06:08:19.777Z,18.37
2022-08-23T06:09:19.781Z,18.39
2022-08-23T06:10:19.746Z,18.39
2022-08-23T06:11:19.758Z,18.39
2022-08-23T06:12:19.719Z,18.41
2022-08-23T06:13:19.710Z,18.42
2022-08-23T06:14:19.758Z,18.42
2022-08-23T06:15:19.696Z,18.45
2022-08-23T06:16:19.679Z,18.48
2022-08-23T06:17:19.659Z,18.51
2022-08-23T06:18:19.641Z,18.53
2022-08-23T06:19:19.628Z,18.57
2022-08-23T06:20:19.627Z,18.61
2022-08-23T06:21:19.640Z,18.63
2022-08-23T06:22:19.588Z,18.66
2022-08-23T06:23:19.567Z,18.67
2022-08-23T06:24:19.562Z,18.70
2022-08-23T06:25:19.550Z,18.71
2022-08-23T06:26:19.550Z,18.74
2022-08-23T06:27:19.521Z,18.76
2022-08-23T06:28:19.510Z,18.78
2022-08-23T06:29:20.560Z,18.81
2022-08-23T06:30:19.461Z,18.82
2022-08-23T06:31:19.574Z,18.83
2022-08-23T06:32:19.502Z,18.88
2022-08-23T06:33:19.494Z,18.92
2022-08-23T06:34:19.418Z,18.96
2022-08-23T06:35:38.390Z,18.98
2022-08-23T06:36:20.411Z,19.04
2022-08-23T06:37:19.390Z,19.05
2022-08-23T06:38:19.368Z,19.08
2022-08-23T06:39:19.360Z,19.16
2022-08-23T06:40:19.424Z,19.19
2022-08-23T06:41:19.329Z,19.20
2022-08-23T06:43:20.300Z,19.27
2022-08-23T06:44:19.284Z,19.30
2022-08-23T06:45:19.272Z,19.34
2022-08-23T06:46:19.289Z,19.37
2022-08-23T06:47:19.923Z,19.38
2022-08-23T06:48:19.232Z,19.42
2022-08-23T06:49:19.222Z,19.44
2022-08-23T06:50:19.193Z,19.49
2022-08-23T06:51:19.191Z,19.53
2022-08-23T06:52:19.193Z,19.56
2022-08-23T06:53:19.171Z,19.60
2022-08-23T06:54:19.148Z,19.63
2022-08-23T06:55:19.142Z,19.66
2022-08-23T06:56:19.114Z,19.70
2022-08-23T06:57:19.131Z,19.71
2022-08-23T06:58:19.093Z,19.74
2022-08-23T06:59:19.075Z,19.77
2022-08-23T07:00:22.314Z,19.81
2022-08-23T07:01:44.171Z,19.82
2022-08-23T07:02:20.249Z,19.89
2022-08-23T07:03:19.037Z,19.92
2022-08-23T07:04:19.004Z,19.93
2022-08-23T07:05:18.994Z,19.97
2022-08-23T07:06:18.984Z,20.03
2022-08-23T07:07:18.985Z,20.03
2022-08-23T07:08:18.975Z,20.07
2022-08-23T07:09:18.953Z,20.07
2022-08-23T07:10:18.924Z,20.12
2022-08-23T07:11:18.914Z,20.17
2022-08-23T07:12:18.914Z,20.22
2022-08-23T07:13:18.923Z,20.24
2022-08-23T07:14:18.875Z,20.27
2022-08-23T07:15:18.883Z,20.30
2022-08-23T07:16:18.876Z,20.30
2022-08-23T07:17:18.844Z,20.33
2022-08-23T07:18:18.824Z,20.34
2022-08-23T07:19:18.806Z,20.34
2022-08-23T07:20:18.787Z,20.37
2022-08-23T07:21:18.786Z,20.39
2022-08-23T07:22:18.776Z,20.39
2022-08-23T07:23:18.744Z,20.40
2022-08-23T07:24:18.800Z,20.40
2022-08-23T07:25:18.726Z,20.40
2022-08-23T07:26:18.705Z,20.39
2022-08-23T07:27:18.715Z,20.40
2022-08-23T07:28:18.674Z,20.40
2022-08-23T07:29:18.696Z,20.39
2022-08-23T07:30:18.654Z,20.44
2022-08-23T07:31:18.665Z,20.46
2022-08-23T07:32:18.934Z,20.49
2022-08-23T07:33:18.617Z,20.55
2022-08-23T07:34:18.595Z,20.56
2022-08-23T07:35:21.329Z,20.58
2022-08-23T07:36:18.622Z,20.63
2022-08-23T07:37:18.862Z,20.70
2022-08-23T07:38:18.549Z,20.74
2022-08-23T07:39:18.539Z,20.78
2022-08-23T07:40:20.677Z,20.85
2022-08-23T07:41:18.508Z,20.89
2022-08-23T07:42:23.364Z,20.92
2022-08-23T07:43:19.483Z,20.96
2022-08-23T07:44:18.659Z,20.98
2022-08-23T07:45:18.460Z,21.03
2022-08-23T07:46:18.489Z,21.07
2022-08-23T07:47:18.450Z,21.11
2022-08-23T07:48:37.126Z,21.14
2022-08-23T07:49:19.410Z,21.20
2022-08-23T07:50:18.389Z,21.22
2022-08-23T07:51:18.380Z,21.26
2022-08-23T07:52:18.383Z,21.28
2022-08-23T07:53:18.350Z,21.32
2022-08-23T07:54:19.335Z,21.35
2022-08-23T07:55:18.320Z,21.38
2022-08-23T07:56:18.309Z,21.44
2022-08-23T07:57:18.324Z,21.45
2022-08-23T07:58:18.275Z,21.50
2022-08-23T07:59:18.269Z,21.54
2022-08-23T08:00:18.248Z,21.56
2022-08-23T08:01:18.323Z,21.60
2022-08-23T08:02:18.278Z,21.63
2022-08-23T08:03:18.269Z,21.68
2022-08-23T08:04:18.222Z,21.69
2022-08-23T08:05:21.583Z,21.74
2022-08-23T08:06:18.183Z,21.75
2022-08-23T08:07:20.815Z,21.78
2022-08-23T08:08:18.151Z,21.83
2022-08-23T08:09:18.123Z,21.85
2022-08-23T08:10:18.122Z,21.89
2022-08-23T08:11:18.103Z,21.94
2022-08-23T08:12:18.094Z,21.97
2022-08-23T08:13:18.076Z,22.00
2022-08-23T08:14:18.063Z,22.04
2022-08-23T08:15:18.053Z,22.07
2022-08-23T08:16:18.099Z,22.10
2022-08-23T08:17:18.036Z,22.15
2022-08-23T08:18:18.064Z,22.16
2022-08-23T08:19:18.957Z,22.21
2022-08-23T08:20:17.996Z,22.23
2022-08-23T08:21:17.974Z,22.25
2022-08-23T08:22:17.975Z,22.30
2022-08-23T08:23:17.934Z,22.31
2022-08-23T08:24:17.936Z,22.34
2022-08-23T08:25:18.563Z,22.36
2022-08-23T08:26:17.904Z,22.38
2022-08-23T08:27:17.888Z,22.43
2022-08-23T08:28:17.895Z,22.46
2022-08-23T08:29:17.855Z,22.49
2022-08-23T08:30:17.848Z,22.52
2022-08-23T08:31:17.878Z,22.55
2022-08-23T08:32:17.816Z,22.59
2022-08-23T08:33:17.828Z,22.59
2022-08-23T08:34:17.797Z,22.63
2022-08-23T08:35:17.776Z,22.67
2022-08-23T08:36:17.776Z,22.68
2022-08-23T08:37:17.754Z,22.68
2022-08-23T08:38:17.746Z,22.71
2022-08-23T08:39:17.726Z,22.76
2022-08-23T08:40:17.755Z,22.77
2022-08-23T08:41:17.694Z,22.80
2022-08-23T08:42:18.001Z,22.83
2022-08-23T08:43:17.678Z,22.86
2022-08-23T08:44:17.659Z,22.89
2022-08-23T08:45:17.661Z,22.91
2022-08-23T08:46:17.681Z,22.95
2022-08-23T08:47:17.626Z,22.98
2022-08-23T08:48:17.618Z,22.99
2022-08-23T08:49:17.598Z,23.01
2022-08-23T08:50:17.579Z,23.04
2022-08-23T08:51:17.568Z,23.07
2022-08-23T08:52:17.581Z,23.08
2022-08-23T08:53:17.532Z,23.13
2022-08-23T08:54:17.546Z,23.16
2022-08-23T08:55:17.517Z,23.23
2022-08-23T08:56:17.658Z,23.29
2022-08-23T08:57:17.489Z,23.32
2022-08-23T08:58:17.501Z,23.34
2022-08-23T08:59:17.475Z,23.34
2022-08-23T09:00:17.498Z,23.36
2022-08-23T09:01:17.524Z,23.36
2022-08-23T09:02:20.125Z,23.39
2022-08-23T09:03:18.478Z,23.40
2022-08-23T09:04:17.390Z,23.42
2022-08-23T09:05:17.370Z,23.42
2022-08-23T09:06:17.372Z,23.45
2022-08-23T09:07:17.351Z,23.48
2022-08-23T09:08:17.380Z,23.51
2022-08-23T09:09:17.322Z,23.55
2022-08-23T09:10:17.308Z,23.55
2022-08-23T09:11:17.299Z,23.59
2022-08-23T09:12:17.284Z,23.62
2022-08-23T09:13:18.028Z,23.63
2022-08-23T09:14:17.261Z,23.64
2022-08-23T09:15:17.342Z,23.67
2022-08-23T09:16:17.264Z,23.69
2022-08-23T09:17:17.221Z,23.71
2022-08-23T09:18:17.260Z,23.73
2022-08-23T09:19:17.173Z,23.79
2022-08-23T09:20:17.281Z,23.82
2022-08-23T09:21:17.181Z,23.85
2022-08-23T09:22:17.167Z,23.88
2022-08-23T09:23:17.175Z,23.92
2022-08-23T09:24:17.123Z,23.95
2022-08-23T09:25:17.117Z,23.99
2022-08-23T09:26:17.124Z,24.01
2022-08-23T09:27:17.095Z,24.10
2022-08-23T09:28:17.093Z,24.13
2022-08-23T09:29:17.074Z,24.22
2022-08-23T09:30:17.080Z,24.28
2022-08-23T09:31:17.068Z,24.31
2022-08-23T09:32:17.089Z,24.38
2022-08-23T09:33:17.048Z,24.40
2022-08-23T09:34:16.999Z,24.40
2022-08-23T09:35:16.976Z,24.44
2022-08-23T09:36:16.985Z,24.48
2022-08-23T09:37:16.961Z,24.53
2022-08-23T09:38:16.977Z,24.58
2022-08-23T09:39:16.929Z,24.62
2022-08-23T09:40:17.065Z,24.68
2022-08-23T09:41:17.963Z,24.71
2022-08-23T09:42:16.895Z,24.78
2022-08-23T09:43:16.886Z,24.81
2022-08-23T09:44:16.924Z,24.84
2022-08-23T09:45:16.868Z,24.85
2022-08-23T09:46:16.864Z,24.88
2022-08-23T09:47:16.817Z,24.94
2022-08-23T09:48:16.808Z,25.00
2022-08-23T09:49:16.828Z,25.06
2022-08-23T09:50:16.938Z,25.12
2022-08-23T09:51:16.760Z,25.15
2022-08-23T09:52:22.008Z,25.15
2022-08-23T09:53:17.738Z,25.15
2022-08-23T09:54:16.738Z,25.16
2022-08-23T09:55:16.706Z,25.15
2022-08-23T09:56:16.698Z,25.14
2022-08-23T09:57:16.688Z,25.14
2022-08-23T09:58:16.671Z,25.11
2022-08-23T09:59:16.673Z,25.12
2022-08-23T10:00:16.639Z,25.11
2022-08-23T10:01:25.893Z,25.14
2022-08-23T10:02:16.576Z,25.21
2022-08-23T10:03:16.558Z,25.30
2022-08-23T10:04:16.637Z,25.40
2022-08-23T10:05:16.538Z,25.46
2022-08-23T10:06:16.528Z,25.51
2022-08-23T10:07:16.514Z,25.55
2022-08-23T10:08:16.496Z,25.59
2022-08-23T10:09:16.499Z,25.61
2022-08-23T10:10:16.465Z,25.62
2022-08-23T10:11:16.459Z,25.62
2022-08-23T10:12:16.446Z,25.63
2022-08-23T10:13:16.427Z,25.63
2022-08-23T10:14:16.426Z,25.67
2022-08-23T10:15:16.397Z,25.68
2022-08-23T10:16:16.479Z,25.74
2022-08-23T10:17:16.376Z,25.77
2022-08-23T10:18:16.376Z,25.78
2022-08-23T10:19:16.358Z,25.81
2022-08-23T10:20:16.337Z,25.85
2022-08-23T10:21:20.689Z,25.89
2022-08-23T10:22:16.309Z,25.89
2022-08-23T10:23:16.288Z,25.93
2022-08-23T10:24:16.298Z,25.95
2022-08-23T10:25:16.258Z,25.99
2022-08-23T10:26:16.255Z,25.99
2022-08-23T10:27:16.239Z,26.03
2022-08-23T10:28:16.229Z,26.07
2022-08-23T10:29:16.230Z,26.15
2022-08-23T10:30:16.199Z,26.26
2022-08-23T10:31:16.264Z,26.36
2022-08-23T10:32:16.170Z,26.48
2022-08-23T10:33:18.664Z,26.55
2022-08-23T10:34:16.171Z,26.63
2022-08-23T10:35:16.130Z,26.68
2022-08-23T10:36:16.125Z,26.73
2022-08-23T10:37:16.195Z,26.78
2022-08-23T10:38:16.130Z,26.85
2022-08-23T10:39:16.092Z,26.88
2022-08-23T10:40:16.140Z,26.96
2022-08-23T10:41:16.062Z,27.01
2022-08-23T10:42:16.049Z,27.03
2022-08-23T10:43:16.039Z,27.05
2022-08-23T10:44:16.032Z,27.11
2022-08-23T10:45:15.999Z,27.15
2022-08-23T10:46:16.049Z,27.15
2022-08-23T10:47:15.994Z,27.16
2022-08-23T10:48:15.983Z,27.16
2022-08-23T10:49:15.971Z,27.15
2022-08-23T10:50:15.963Z,27.13
2022-08-23T10:51:19.898Z,27.11
2022-08-23T10:52:16.913Z,27.11
2022-08-23T10:53:15.923Z,27.10
2022-08-23T10:54:15.925Z,27.11
2022-08-23T10:55:15.872Z,27.16
2022-08-23T10:56:15.864Z,27.22
2022-08-23T10:57:15.854Z,27.22
2022-08-23T10:58:15.835Z,27.25
2022-08-23T10:59:15.822Z,27.28
2022-08-23T11:00:15.825Z,27.30
2022-08-23T11:01:15.834Z,27.35
2022-08-23T11:02:15.819Z,27.41
2022-08-23T11:03:15.766Z,27.47
2022-08-23T11:04:15.766Z,27.55
2022-08-23T11:05:15.756Z,27.64
2022-08-23T11:06:15.736Z,27.73
2022-08-23T11:07:15.716Z,27.76
2022-08-23T11:08:15.706Z,27.78
2022-08-23T11:09:15.697Z,27.78
2022-08-23T11:10:16.373Z,27.88
2022-08-23T11:11:15.667Z,27.95
2022-08-23T11:12:15.660Z,28.00
2022-08-23T11:13:15.637Z,28.01
2022-08-23T11:14:15.635Z,28.01
2022-08-23T11:15:15.637Z,28.03
2022-08-23T11:16:15.621Z,28.06
2022-08-23T11:17:15.579Z,28.08
2022-08-23T11:18:15.589Z,28.09
2022-08-23T11:19:15.657Z,28.12
2022-08-23T11:20:15.606Z,28.18
2022-08-23T11:21:15.549Z,28.19
2022-08-23T11:22:15.546Z,28.20
2022-08-23T11:23:15.510Z,28.23
2022-08-23T11:24:15.498Z,28.27
2022-08-23T11:25:15.608Z,28.31
2022-08-23T11:26:15.470Z,28.37
2022-08-23T11:27:15.465Z,28.43
2022-08-23T11:28:15.449Z,28.46
2022-08-23T11:29:15.429Z,28.52
2022-08-23T11:30:15.625Z,28.59
2022-08-23T11:31:15.477Z,28.65
2022-08-23T11:32:15.400Z,28.71
2022-08-23T11:33:15.372Z,28.75
2022-08-23T11:34:15.935Z,28.80
2022-08-23T11:35:15.371Z,28.82
2022-08-23T11:36:15.348Z,28.82
2022-08-23T11:37:15.332Z,28.84
2022-08-23T11:38:15.328Z,28.90
2022-08-23T11:39:19.580Z,28.96
2022-08-23T11:40:18.452Z,28.96
2022-08-23T11:41:15.294Z,28.97
2022-08-23T11:42:15.263Z,28.96
2022-08-23T11:43:15.253Z,28.94
2022-08-23T11:44:15.233Z,28.93
2022-08-23T11:45:15.263Z,28.94
2022-08-23T11:46:15.262Z,28.93
2022-08-23T11:47:15.194Z,28.96
2022-08-23T11:48:15.194Z,28.97
2022-08-23T11:49:15.164Z,29.02
2022-08-23T11:50:15.174Z,29.06
2022-08-23T11:51:15.144Z,29.09
2022-08-23T11:52:15.135Z,29.12
2022-08-23T11:53:15.259Z,29.13
2022-08-23T11:54:15.106Z,29.16
2022-08-23T11:55:15.112Z,29.18
2022-08-23T11:56:15.081Z,29.20
2022-08-23T11:57:15.055Z,29.24
2022-08-23T11:58:15.062Z,29.31
2022-08-23T11:59:15.043Z,29.39
2022-08-23T12:00:15.059Z,29.46
2022-08-23T12:01:15.005Z,29.50
2022-08-23T12:02:16.110Z,29.58
2022-08-23T12:03:15.077Z,29.62
2022-08-23T12:04:14.975Z,29.68
2022-08-23T12:05:14.966Z,29.71
2022-08-23T12:06:14.946Z,29.76
2022-08-23T12:07:14.929Z,29.79
2022-08-23T12:08:14.919Z,29.80
2022-08-23T12:09:14.888Z,29.74
2022-08-23T12:10:14.898Z,29.76
2022-08-23T12:11:14.878Z,29.76
2022-08-23T12:12:14.857Z,29.74
2022-08-23T12:13:14.849Z,29.74
2022-08-23T12:14:14.828Z,29.73
2022-08-23T12:15:14.808Z,29.74
2022-08-23T12:16:16.744Z,29.76
2022-08-23T12:17:15.334Z,29.77
2022-08-23T12:18:14.768Z,29.80
2022-08-23T12:19:14.767Z,29.81
2022-08-23T12:20:17.075Z,29.86
2022-08-23T12:21:14.757Z,29.84
2022-08-23T12:22:14.719Z,29.83
2022-08-23T12:23:14.713Z,29.81
2022-08-23T12:24:14.698Z,29.81
2022-08-23T12:25:14.701Z,29.87
2022-08-23T12:26:14.670Z,29.87
2022-08-23T12:27:14.660Z,29.92
2022-08-23T12:28:14.658Z,29.94
2022-08-23T12:29:14.631Z,29.96
2022-08-23T12:30:14.631Z,29.96
2022-08-23T12:31:14.870Z,29.98
2022-08-23T12:32:14.589Z,29.98
2022-08-23T12:33:14.623Z,29.96
2022-08-23T12:34:14.573Z,29.92
2022-08-23T12:35:14.575Z,29.92
2022-08-23T12:36:16.450Z,29.99
2022-08-23T12:37:14.522Z,30.06
2022-08-23T12:38:14.514Z,30.11
2022-08-23T12:39:14.503Z,30.20
2022-08-23T12:40:14.548Z,30.29
2022-08-23T12:41:14.473Z,30.36
2022-08-23T12:42:14.456Z,30.44
2022-08-23T12:43:17.444Z,30.48
2022-08-23T12:44:17.421Z,30.51
2022-08-23T12:45:15.086Z,30.49
2022-08-23T12:46:14.412Z,30.46
2022-08-23T12:47:14.395Z,30.51
2022-08-23T12:48:14.375Z,30.52
2022-08-23T12:49:15.101Z,30.52
2022-08-23T12:50:15.072Z,30.49
2022-08-23T12:51:14.337Z,30.49
2022-08-23T12:52:14.335Z,30.46
2022-08-23T12:53:14.315Z,30.46
2022-08-23T12:54:14.316Z,30.54
2022-08-23T12:55:14.306Z,30.62